createdAt,value
2022-12-26T00:00:55.921Z,101036.38
2022-12-26T00:03:22.704Z,101026.38
2022-12-26T00:05:49.155Z,101022.88
2022-12-26T00:08:18.718Z,101024.50
2022-12-26T00:10:52.377Z,101025.56
2022-12-26T00:13:38.680Z,101035.31
2022-12-26T00:16:20.108Z,101038.25
2022-12-26T00:19:05.073Z,101046.13
2022-12-26T00:21:31.827Z,101030.72
2022-12-26T00:24:00.375Z,101044.22
2022-12-26T00:26:30.260Z,101040.72
2022-12-26T00:28:57.522Z,101040.97
2022-12-26T00:31:28.154Z,101050.72
2022-12-26T00:34:11.620Z,101052.63
2022-12-26T00:36:38.094Z,101066.13
2022-12-26T00:39:04.889Z,101066.94
2022-12-26T00:41:31.532Z,101059.88
2022-12-26T00:44:02.159Z,101067.19
2022-12-26T00:46:28.715Z,101065.31
2022-12-26T00:48:57.981Z,101069.91
2022-12-26T00:52:00.383Z,101068.28
2022-12-26T00:54:26.850Z,101072.03
2022-12-26T00:57:01.530Z,101072.59
2022-12-26T00:59:27.906Z,101073.69
2022-12-26T01:01:56.510Z,101078.53
2022-12-26T01:04:28.245Z,101074.75
2022-12-26T01:06:54.628Z,101079.59
2022-12-26T01:09:28.171Z,101074.19
2022-12-26T01:11:56.713Z,101081.22
2022-12-26T01:14:23.098Z,101077.94
2022-12-26T01:16:53.598Z,101060.09
2022-12-26T01:19:20.073Z,101070.91
2022-12-26T01:21:46.788Z,101075.25
2022-12-26T01:24:31.140Z,101084.16
2022-12-26T01:26:57.581Z,101076.88
2022-12-26T01:29:30.273Z,101071.47
2022-12-26T01:32:02.942Z,101069.34
2022-12-26T01:35:20.339Z,101068.28
2022-12-26T01:37:46.764Z,101061.22
2022-12-26T01:40:13.301Z,101063.94
2022-12-26T01:42:42.005Z,101073.69
2022-12-26T01:45:40.497Z,101073.69
2022-12-26T01:48:34.449Z,101069.91
2022-12-26T01:51:05.478Z,101079.09
2022-12-26T01:54:37.515Z,101072.59
2022-12-26T01:57:04.715Z,101088.56
2022-12-26T01:59:51.590Z,101086.94
2022-12-26T02:02:20.884Z,101084.00
2022-12-26T02:05:16.780Z,101085.06
2022-12-26T02:07:45.755Z,101082.34
2022-12-26T02:10:26.644Z,101079.66
2022-12-26T02:12:58.371Z,101075.88
2022-12-26T02:15:25.752Z,101073.19
2022-12-26T02:17:52.120Z,101076.94
2022-12-26T02:20:22.616Z,101063.44
2022-12-26T02:23:26.651Z,101065.31
2022-12-26T02:26:27.349Z,101072.84
2022-12-26T02:29:31.417Z,101068.28
2022-12-26T02:32:24.399Z,101072.34
2022-12-26T02:35:29.288Z,101076.94
2022-12-26T02:37:58.735Z,101081.28
2022-12-26T02:40:37.219Z,101081.28
2022-12-26T02:43:16.900Z,101078.59
2022-12-26T02:46:43.474Z,101068.00
2022-12-26T02:49:30.274Z,101072.03
2022-12-26T02:52:53.409Z,101079.31
2022-12-26T02:55:44.888Z,101070.41
2022-12-26T02:58:39.436Z,101063.38
2022-12-26T03:01:47.061Z,101057.38
2022-12-26T03:04:50.594Z,101054.69
2022-12-26T03:07:56.106Z,101062.22
2022-12-26T03:10:53.602Z,101048.72
2022-12-26T03:13:53.672Z,101055.19
2022-12-26T03:16:47.654Z,101046.50
2022-12-26T03:19:28.503Z,101061.09
2022-12-26T03:22:31.100Z,101063.53
2022-12-26T03:25:58.782Z,101073.53
2022-12-26T03:28:26.335Z,101079.75
2022-12-26T03:31:03.001Z,101078.94
2022-12-26T03:34:19.735Z,101075.19
2022-12-26T03:37:14.160Z,101075.97
2022-12-26T03:44:28.796Z,101070.28
2022-12-26T03:47:38.329Z,101068.63
2022-12-26T03:50:50.641Z,101065.94
2022-12-26T03:53:46.435Z,101061.09
2022-12-26T03:57:10.542Z,101063.22
2022-12-26T04:00:02.500Z,101071.56
2022-12-26T04:03:06.282Z,101067.00
2022-12-26T04:05:55.836Z,101072.41
2022-12-26T04:09:14.355Z,101067.00
2022-12-26T04:12:03.038Z,101065.38
2022-12-26T04:15:11.617Z,101065.38
2022-12-26T04:18:10.996Z,101059.13
2022-12-26T04:20:54.447Z,101072.66
2022-12-26T04:24:09.441Z,101066.16
2022-12-26T04:27:02.419Z,101069.13
2022-12-26T04:29:49.122Z,101068.88
2022-12-26T04:32:47.437Z,101075.63
2022-12-26T04:36:10.846Z,101066.38
2022-12-26T04:39:13.356Z,101082.81
2022-12-26T04:42:00.795Z,101083.56
2022-12-26T04:44:49.999Z,101079.22
2022-12-26T04:47:25.543Z,101073.50
2022-12-26T04:50:12.641Z,101076.44
2022-12-26T04:52:59.018Z,101068.81
2022-12-26T04:55:33.293Z,101066.97
2022-12-26T04:58:00.406Z,101065.31
2022-12-26T05:01:21.221Z,101061.56
2022-12-26T05:04:17.403Z,101063.91
2022-12-26T05:07:14.720Z,101056.06
2022-12-26T05:09:41.203Z,101055.25
2022-12-26T05:12:43.770Z,101045.75
2022-12-26T05:15:10.865Z,101045.75
2022-12-26T05:17:56.139Z,101034.13
2022-12-26T05:20:58.173Z,101048.13
2022-12-26T05:24:01.443Z,101047.91
2022-12-26T05:26:53.737Z,101044.13
2022-12-26T05:30:16.921Z,101032.75
2022-12-26T05:33:54.725Z,101046.50
2022-12-26T05:36:24.245Z,101056.22
2022-12-26T05:39:11.622Z,101056.22
2022-12-26T05:41:38.907Z,101069.19
2022-12-26T05:44:05.958Z,101066.97
2022-12-26T05:46:33.441Z,101059.94
2022-12-26T05:49:06.619Z,101066.41
2022-12-26T05:51:37.133Z,101072.63
2022-12-26T05:54:07.773Z,101075.56
2022-12-26T05:56:34.325Z,101073.94
2022-12-26T05:59:01.225Z,101076.91
2022-12-26T06:01:29.803Z,101075.75
2022-12-26T06:04:00.785Z,101072.22
2022-12-26T06:06:33.515Z,101059.19
2022-12-26T06:09:23.687Z,101060.28
2022-12-26T06:11:50.111Z,101051.38
2022-12-26T06:14:16.838Z,101060.75
2022-12-26T06:16:43.363Z,101063.72
2022-12-26T06:19:09.929Z,101063.16
2022-12-26T06:21:37.413Z,101063.16
2022-12-26T06:24:03.965Z,101070.41
2022-12-26T06:26:30.383Z,101074.75
2022-12-26T06:29:00.920Z,101064.78
2022-12-26T06:31:37.746Z,101062.66
2022-12-26T06:34:04.270Z,101056.19
2022-12-26T06:36:32.798Z,101062.88
2022-12-26T06:39:01.355Z,101066.44
2022-12-26T06:41:42.013Z,101078.03
2022-12-26T06:44:17.704Z,101072.63
2022-12-26T06:46:46.940Z,101075.59
2022-12-26T06:49:17.608Z,101072.63
2022-12-26T06:51:45.122Z,101076.41
2022-12-26T06:54:21.743Z,101084.50
2022-12-26T06:56:48.156Z,101083.44
2022-12-26T06:59:14.581Z,101087.19
2022-12-26T07:01:56.426Z,101078.28
2022-12-26T07:04:22.875Z,101075.59
2022-12-26T07:06:49.274Z,101080.50
2022-12-26T07:09:17.872Z,101082.38
2022-12-26T07:12:01.614Z,101080.00
2022-12-26T07:14:29.159Z,101089.50
2022-12-26T07:16:55.783Z,101086.56
2022-12-26T07:19:22.347Z,101084.44
2022-12-26T07:21:48.749Z,101085.22
2022-12-26T07:24:20.006Z,101070.09
2022-12-26T07:26:47.001Z,101073.84
2022-12-26T07:29:39.916Z,101072.22
2022-12-26T07:32:06.414Z,101084.09
2022-12-26T07:34:34.856Z,101083.03
2022-12-26T07:37:01.341Z,101079.75
2022-12-26T07:39:28.819Z,101064.59
2022-12-26T07:41:58.157Z,101066.72
2022-12-26T07:44:39.165Z,101067.00
2022-12-26T07:47:05.555Z,101066.72
2022-12-26T07:49:32.588Z,101067.56
2022-12-26T07:51:59.136Z,101075.41
2022-12-26T07:54:29.981Z,101071.66
2022-12-26T07:57:38.161Z,101072.47
2022-12-26T07:59:57.303Z,101074.91
2022-12-26T08:02:34.040Z,101069.50
2022-12-26T08:05:00.582Z,101072.78
2022-12-26T08:07:27.276Z,101076.91
2022-12-26T08:09:57.710Z,101079.34
2022-12-26T08:12:28.206Z,101082.59
2022-12-26T08:14:54.594Z,101090.22
2022-12-26T08:17:21.122Z,101070.81
2022-12-26T08:19:52.712Z,101077.84
2022-12-26T08:22:19.084Z,101080.06
2022-12-26T08:24:45.466Z,101081.69
2022-12-26T08:27:12.165Z,101078.41
2022-12-26T08:29:39.638Z,101081.69
2022-12-26T08:32:11.237Z,101086.88
2022-12-26T08:34:45.122Z,101088.00
2022-12-26T08:37:11.486Z,101097.50
2022-12-26T08:39:40.985Z,101098.06
2022-12-26T08:42:09.532Z,101097.56
2022-12-26T08:44:35.990Z,101100.84
2022-12-26T08:47:04.649Z,101108.44
2022-12-26T08:49:31.000Z,101101.75
2022-12-26T08:52:16.395Z,101106.41
2022-12-26T08:54:42.768Z,101117.81
2022-12-26T08:57:13.930Z,101111.31
2022-12-26T08:59:40.319Z,101107.06
2022-12-26T09:02:20.995Z,101128.69
2022-12-26T09:04:48.578Z,101130.31
2022-12-26T09:07:52.337Z,101142.78
2022-12-26T09:10:18.810Z,101150.63
2022-12-26T09:12:47.251Z,101140.63
2022-12-26T09:15:36.568Z,101160.72
2022-12-26T09:18:27.844Z,101157.16
2022-12-26T09:20:54.297Z,101160.72
2022-12-26T09:23:30.137Z,101171.53
2022-12-26T09:26:11.983Z,101181.28
2022-12-26T09:29:12.298Z,101203.13
2022-12-26T09:31:45.958Z,101200.69
2022-12-26T09:34:31.772Z,101213.38
2022-12-26T09:37:37.333Z,101220.69
2022-12-26T09:40:32.908Z,101229.53
2022-12-26T09:43:23.077Z,101235.75
2022-12-26T09:46:21.401Z,101237.91
2022-12-26T09:49:04.830Z,101232.22
2022-12-26T09:51:44.562Z,101246.59
2022-12-26T09:54:21.923Z,101254.13
2022-12-26T09:57:30.206Z,101276.25
2022-12-26T10:00:00.660Z,101296.72
2022-12-26T10:02:30.484Z,101296.28
2022-12-26T10:05:47.673Z,101309.13
2022-12-26T10:08:48.889Z,101320.06
2022-12-26T10:11:47.280Z,101317.84
2022-12-26T10:14:56.314Z,101332.31
2022-12-26T10:18:11.073Z,101336.09
2022-12-26T10:21:16.072Z,101350.06
2022-12-26T10:23:57.295Z,101367.16
2022-12-26T10:26:27.058Z,101362.47
2022-12-26T10:29:02.821Z,101375.63
2022-12-26T10:31:52.249Z,101385.75
2022-12-26T10:34:50.790Z,101383.44
2022-12-26T10:37:39.366Z,101389.88
2022-12-26T10:40:43.903Z,101395.19
2022-12-26T10:43:40.991Z,101400.31
2022-12-26T10:46:45.781Z,101391.91
2022-12-26T10:49:18.322Z,101395.06
2022-12-26T10:51:50.675Z,101404.44
2022-12-26T10:54:18.657Z,101405.75
2022-12-26T10:56:48.504Z,101423.22
2022-12-26T10:59:20.137Z,101419.72
2022-12-26T11:01:47.799Z,101410.44
2022-12-26T11:04:44.507Z,101415.00
2022-12-26T11:07:12.815Z,101415.00
2022-12-26T11:09:45.790Z,101419.72
2022-12-26T11:12:47.217Z,101439.41
2022-12-26T11:15:51.236Z,101443.94
2022-12-26T11:18:22.395Z,101447.44
2022-12-26T11:21:14.459Z,101436.44
2022-12-26T11:23:40.828Z,101442.19
2022-12-26T11:26:21.214Z,101453.00
2022-12-26T11:28:47.918Z,101456.06
2022-12-26T11:31:25.110Z,101459.34
2022-12-26T11:33:51.697Z,101454.66
2022-12-26T11:36:29.958Z,101456.19
2022-12-26T11:39:15.922Z,101479.00
2022-12-26T11:41:43.960Z,101482.06
2022-12-26T11:44:46.558Z,101487.91
2022-12-26T11:47:18.124Z,101483.31
2022-12-26T11:50:01.653Z,101484.16
2022-12-26T11:52:56.099Z,101492.25
2022-12-26T11:55:22.412Z,101483.94
2022-12-26T11:58:06.257Z,101483.66
2022-12-26T12:00:38.812Z,101488.56
2022-12-26T12:03:26.024Z,101493.53
2022-12-26T12:10:16.736Z,101486.94
2022-12-26T12:16:53.673Z,101488.16
2022-12-26T12:19:32.631Z,101495.13
2022-12-26T12:22:39.744Z,101493.31
2022-12-26T12:25:35.742Z,101501.75
2022-12-26T12:28:18.510Z,101496.50
2022-12-26T12:31:12.524Z,101500.16
2022-12-26T12:34:12.441Z,101501.69
2022-12-26T12:37:19.125Z,101499.81
2022-12-26T12:40:40.084Z,101507.44
2022-12-26T12:43:29.289Z,101509.94
2022-12-26T12:46:21.123Z,101515.59
2022-12-26T12:49:27.166Z,101514.56
2022-12-26T12:52:19.450Z,101516.56
2022-12-26T12:55:23.544Z,101529.13
2022-12-26T12:57:57.913Z,101533.47
2022-12-26T13:01:17.885Z,101537.22
2022-12-26T13:04:01.481Z,101527.31
2022-12-26T13:07:11.165Z,101529.63
2022-12-26T13:09:46.740Z,101527.09
2022-12-26T13:12:45.913Z,101528.09
2022-12-26T13:15:27.717Z,101533.19
2022-12-26T13:18:06.016Z,101543.31
2022-12-26T13:20:44.187Z,101544.97
2022-12-26T13:24:11.052Z,101554.47
2022-12-26T13:26:41.262Z,101559.91
2022-12-26T13:29:28.174Z,101555.78
2022-12-26T13:31:54.761Z,101545.19
2022-12-26T13:34:33.123Z,101553.91
2022-12-26T13:37:31.463Z,101557.88
2022-12-26T13:40:00.973Z,101558.50
2022-12-26T13:43:02.754Z,101556.50
2022-12-26T13:49:48.889Z,101566.59
2022-12-26T13:52:15.198Z,101568.25
2022-12-26T13:55:19.980Z,101573.19
2022-12-26T13:57:47.403Z,101569.88
2022-12-26T14:00:44.283Z,101576.94
2022-12-26T14:03:30.068Z,101580.44
2022-12-26T14:09:53.897Z,101602.50
2022-12-26T14:13:03.084Z,101607.63
2022-12-26T14:15:43.177Z,101613.81
2022-12-26T14:18:34.531Z,101621.19
2022-12-26T14:21:25.765Z,101626.31
2022-12-26T14:28:00.269Z,101639.69
2022-12-26T14:31:05.367Z,101643.97
2022-12-26T14:33:55.346Z,101650.94
2022-12-26T14:36:51.814Z,101654.09
2022-12-26T14:40:02.898Z,101652.28
2022-12-26T14:42:48.864Z,101656.03
2022-12-26T14:45:57.463Z,101667.09
2022-12-26T14:48:23.934Z,101671.28
2022-12-26T14:50:55.835Z,101667.75
2022-12-26T14:53:34.209Z,101674.00
2022-12-26T14:56:10.600Z,101676.28
2022-12-26T14:58:47.534Z,101684.00
2022-12-26T15:01:15.525Z,101681.53
2022-12-26T15:03:49.614Z,101687.00
2022-12-26T15:06:18.999Z,101692.41
2022-12-26T15:09:18.473Z,101696.00
2022-12-26T15:12:17.024Z,101700.41
2022-12-26T15:15:24.938Z,101698.16
2022-12-26T15:18:00.292Z,101708.31
2022-12-26T15:20:38.999Z,101709.97
2022-12-26T15:23:37.598Z,101719.53
2022-12-26T15:26:24.842Z,101713.38
2022-12-26T15:29:05.383Z,101711.78
2022-12-26T15:32:05.860Z,101733.75
2022-12-26T15:34:43.103Z,101726.50
2022-12-26T15:37:30.560Z,101730.06
2022-12-26T15:40:20.020Z,101736.31
2022-12-26T15:42:59.214Z,101741.75
2022-12-26T15:45:46.990Z,101730.19
2022-12-26T15:48:43.822Z,101732.69
2022-12-26T15:51:17.139Z,101735.63
2022-12-26T15:54:03.805Z,101741.84
2022-12-26T15:57:08.887Z,101738.97
2022-12-26T15:59:41.385Z,101743.56
2022-12-26T16:02:34.696Z,101751.44
2022-12-26T16:05:31.241Z,101756.81
2022-12-26T16:08:22.646Z,101757.66
2022-12-26T16:11:08.646Z,101763.69
2022-12-26T16:13:35.420Z,101767.84
2022-12-26T16:16:02.060Z,101767.22
2022-12-26T16:18:30.933Z,101781.09
2022-12-26T16:21:21.774Z,101788.53
2022-12-26T16:23:50.241Z,101791.63
2022-12-26T16:26:30.804Z,101787.91
2022-12-26T16:29:00.016Z,101785.84
2022-12-26T16:31:31.056Z,101783.78
2022-12-26T16:33:59.699Z,101785.03
2022-12-26T16:36:31.930Z,101784.41
2022-12-26T16:38:58.309Z,101795.78
2022-12-26T16:41:29.636Z,101796.81
2022-12-26T16:44:30.732Z,101802.63
2022-12-26T16:47:02.298Z,101802.22
2022-12-26T16:49:31.213Z,101796.63
2022-12-26T16:51:58.040Z,101795.38
2022-12-26T16:54:35.965Z,101798.91
2022-12-26T16:57:31.524Z,101800.97
2022-12-26T16:59:59.516Z,101807.56
2022-12-26T17:02:34.799Z,101820.56
2022-12-26T17:05:20.196Z,101828.00
2022-12-26T17:07:49.729Z,101834.81
2022-12-26T17:10:25.047Z,101843.28
2022-12-26T17:13:00.668Z,101841.00
2022-12-26T17:15:35.307Z,101843.88
2022-12-26T17:18:39.784Z,101844.50
2022-12-26T17:21:26.952Z,101839.31
2022-12-26T17:24:08.611Z,101846.56
2022-12-26T17:26:37.744Z,101846.16
2022-12-26T17:29:04.790Z,101844.06
2022-12-26T17:31:43.650Z,101835.38
2022-12-26T17:34:18.284Z,101838.47
2022-12-26T17:37:17.812Z,101839.50
2022-12-26T17:39:34.253Z,101838.22
2022-12-26T17:42:01.957Z,101841.31
2022-12-26T17:44:38.727Z,101849.78
2022-12-26T17:47:18.684Z,101860.50
2022-12-26T17:49:45.800Z,101852.22
2022-12-26T17:52:22.585Z,101843.16
2022-12-26T17:54:51.157Z,101853.06
2022-12-26T17:57:23.941Z,101851.84
2022-12-26T17:59:52.089Z,101854.50
2022-12-26T18:02:19.831Z,101861.31
2022-12-26T18:04:48.006Z,101854.28
2022-12-26T18:07:31.368Z,101865.47
2022-12-26T18:10:00.106Z,101867.53
2022-12-26T18:12:26.621Z,101873.53
2022-12-26T18:15:01.421Z,101876.66
2022-12-26T18:17:31.567Z,101876.66
2022-12-26T18:19:57.968Z,101881.00
2022-12-26T18:22:28.642Z,101885.97
2022-12-26T18:24:55.026Z,101890.78
2022-12-26T18:27:27.715Z,101887.25
2022-12-26T18:29:54.121Z,101885.59
2022-12-26T18:32:30.520Z,101893.22
2022-12-26T18:35:01.188Z,101897.75
2022-12-26T18:37:29.885Z,101896.09
2022-12-26T18:40:04.107Z,101905.97
2022-12-26T18:42:33.557Z,101908.03
2022-12-26T18:44:59.935Z,101915.06
2022-12-26T18:47:30.434Z,101924.13
2022-12-26T18:50:18.088Z,101919.41
2022-12-26T18:52:50.048Z,101927.44
2022-12-26T18:55:23.992Z,101929.94
2022-12-26T18:57:50.381Z,101933.69
2022-12-26T19:00:17.981Z,101929.78
2022-12-26T19:02:45.603Z,101927.53
2022-12-26T19:05:26.061Z,101932.88
2022-12-26T19:07:58.748Z,101937.63
2022-12-26T19:10:28.415Z,101937.22
2022-12-26T19:13:02.828Z,101939.50
2022-12-26T19:15:32.262Z,101941.16
2022-12-26T19:17:58.688Z,101949.84
2022-12-26T19:20:26.522Z,101945.75
2022-12-26T19:22:53.970Z,101952.38
2022-12-26T19:25:24.178Z,101964.78
2022-12-26T19:27:51.252Z,101962.28
2022-12-26T19:31:09.730Z,101960.00
2022-12-26T19:33:36.649Z,101960.63
2022-12-26T19:36:04.314Z,101965.81
2022-12-26T19:38:37.660Z,101970.97
2022-12-26T19:41:12.035Z,101970.53
2022-12-26T19:43:40.137Z,101967.88
2022-12-26T19:46:11.315Z,101973.41
2022-12-26T19:48:54.664Z,101975.91
2022-12-26T19:51:21.983Z,101979.22
2022-12-26T19:53:51.144Z,101979.22
2022-12-26T19:56:25.102Z,101977.56
2022-12-26T19:58:56.397Z,101983.97
2022-12-26T20:01:30.322Z,101983.13
2022-12-26T20:04:07.711Z,101979.63
2022-12-26T20:06:39.632Z,101982.72
2022-12-26T20:09:08.925Z,101980.66
2022-12-26T20:11:49.216Z,101992.44
2022-12-26T20:14:21.333Z,101976.16
2022-12-26T20:17:08.901Z,101964.78
2022-12-26T20:19:55.260Z,101981.28
2022-12-26T20:22:21.650Z,101975.47
2022-12-26T20:24:48.041Z,101979.41
2022-12-26T20:27:14.446Z,101983.50
2022-12-26T20:29:43.257Z,101985.56
2022-12-26T20:32:09.662Z,101977.91
2022-12-26T20:34:41.080Z,101990.31
2022-12-26T20:37:10.423Z,101982.25
2022-12-26T20:39:37.072Z,101990.69
2022-12-26T20:42:03.565Z,101989.03
2022-12-26T20:44:29.966Z,101985.16
2022-12-26T20:46:56.332Z,101987.00
2022-12-26T20:49:22.907Z,101998.97
2022-12-26T20:51:49.258Z,102005.16
2022-12-26T20:54:16.355Z,102005.16
2022-12-26T20:56:47.284Z,102012.56
2022-12-26T20:59:13.669Z,102016.28
2022-12-26T21:01:44.438Z,102012.56
2022-12-26T21:04:18.278Z,102010.53
2022-12-26T21:06:47.239Z,102006.19
2022-12-26T21:09:14.084Z,102015.47
2022-12-26T21:11:42.818Z,102021.25
2022-12-26T21:14:15.660Z,102013.84
2022-12-26T21:16:54.809Z,102021.25
2022-12-26T21:19:22.990Z,102021.25
2022-12-26T21:21:53.006Z,102032.59
2022-12-26T21:24:37.549Z,102032.59
2022-12-26T21:27:04.311Z,102036.09
2022-12-26T21:29:33.711Z,102036.94
2022-12-26T21:32:01.059Z,102035.94
2022-12-26T21:34:29.890Z,102031.59
2022-12-26T21:37:15.490Z,102034.69
2022-12-26T21:39:42.218Z,102040.69
2022-12-26T21:42:09.600Z,102046.06
2022-12-26T21:44:36.956Z,102045.44
2022-12-26T21:47:04.961Z,102056.00
2022-12-26T21:49:31.482Z,102058.47
2022-12-26T21:51:57.832Z,102056.63
2022-12-26T21:54:48.631Z,102056.41
2022-12-26T21:57:15.961Z,102056.00
2022-12-26T21:59:57.642Z,102067.53
2022-12-26T22:02:48.274Z,102067.94
2022-12-26T22:05:15.319Z,102071.00
2022-12-26T22:07:45.646Z,102076.19
2022-12-26T22:10:34.826Z,102072.03
2022-12-26T22:13:02.496Z,102071.41
2022-12-26T22:15:47.629Z,102078.81
2022-12-26T22:18:14.159Z,102079.41
2022-12-26T22:20:44.594Z,102076.91
2022-12-26T22:23:12.087Z,102091.34
2022-12-26T22:25:42.615Z,102088.69
2022-12-26T22:28:09.059Z,102087.66
2022-12-26T22:30:35.434Z,102092.63
2022-12-26T22:33:11.850Z,102094.69
2022-12-26T22:35:46.659Z,102098.00
2022-12-26T22:38:13.589Z,102096.72
2022-12-26T22:40:40.391Z,102101.28
2022-12-26T22:43:07.004Z,102109.13
2022-12-26T22:45:33.428Z,102102.47
2022-12-26T22:47:59.816Z,102098.78
2022-12-26T22:50:26.329Z,102103.50
2022-12-26T22:52:52.687Z,102109.25
2022-12-26T22:55:20.169Z,102105.31
2022-12-26T22:57:51.083Z,102114.38
2022-12-26T23:00:18.995Z,102112.72
2022-12-26T23:02:45.483Z,102121.78
2022-12-26T23:05:13.592Z,102131.72
2022-12-26T23:07:43.225Z,102125.72
2022-12-26T23:10:18.122Z,102121.38
2022-12-26T23:12:45.015Z,102128.56
2022-12-26T23:15:19.848Z,102120.25
2022-12-26T23:18:13.591Z,102125.63
2022-12-26T23:21:13.874Z,102121.28
2022-12-26T23:23:40.484Z,102124.59
2022-12-26T23:26:07.967Z,102113.88
2022-12-26T23:28:52.621Z,102123.97
2022-12-26T23:31:19.004Z,102133.03
2022-12-26T23:33:45.415Z,102137.75
2022-12-26T23:36:17.007Z,102139.81
2022-12-26T23:38:43.387Z,102145.81
2022-12-26T23:41:09.736Z,102147.31
2022-12-26T23:43:37.251Z,102157.81
2022-12-26T23:46:09.507Z,102149.13
2022-12-26T23:48:36.300Z,102137.38
2022-12-26T23:51:05.361Z,102147.72
2022-12-26T23:53:32.121Z,102146.06
2022-12-26T23:55:59.042Z,102140.72
2022-12-26T23:58:25.961Z,102146.72
